Cristiano Rangel

Recruteur - São Paulo
20 Janv 2028
Jeudi
Processus

Personnalité

Adaptabilité (4) Ambition (13) Controverse (17) Loyauté (10) Pression (11) Professionnalisme (5) Sportivité (9) Tempérament (11)

Profil

Style d'entraînement Démocratique
Diplôme Continental Pro
Détermination 12
Gestion des joueurs 9
Motivation 7
Discipline 13
Satisfaction professionnelle
75%
Fatigue
0%
Rôle Recruteur
Salaire 40.1K p/s
Contrat 14.03.2030

Performance

Comportement Bon
Efficacité de l'entraînement
33%
Développement des joueurs
30%
Prévention des blessures
50%
Mise en place tactique
55%

Événements récents

En formation continue maintenant
A participé à une réunion de recrutement maintenant
A recommandé une cible de transfert maintenant
A recommandé une cible de transfert maintenant
A recommandé une cible de transfert maintenant
A recommandé une cible de transfert 7j
En formation continue 7j
En formation continue 7j

Suivi en cours

68
Joueur Club Statut Capacité Confiance Observé Dernière observation Dernier vote
Erick Pulga Bahia Actif 125 / 136 69% 1 20.12.2027 Approuver
Callum Brittain Middlesbrough Actif 127 / 127 40% 1 31.05.2027 -
Nuno Tavares Lazio Actif 153 / 142 40% 1 31.05.2027 -
Thomas De Bruyne Mouscron Actif 116 / 122 40% 4 24.05.2027 -
Fahad Hassan Al Shabab Actif 132 / 120 40% 1 24.05.2027 -
Michael Cooper Sheffield United Actif 130 / 137 40% 2 20.05.2027 -
Diogo Costa Manchester City Actif 170 / 166 40% 2 20.05.2027 -
Mykyta Turbaievskyi Zorya Actif 104 / 118 40% 1 20.05.2027 -
Beau Reus Waasland-Beveren Actif 133 / 134 40% 4 17.05.2027 -
Gianluca Saro Foggia Actif 118 / 116 40% 1 17.05.2027 -
Murphy Cooper Plymouth Argyle Actif 117 / 116 40% 1 17.05.2027 -
Kyrylo Fesiun Shakhtar Actif 119 / 123 40% 1 12.05.2027 -
Robin Roefs Sunderland Actif 147 / 148 40% 1 12.05.2027 -
James Trafford Leeds United Actif 149 / 138 40% 3 08.05.2027 -
Heorhii Yermakov Metalist Actif 131 / 122 40% 1 08.05.2027 -
Mauro Silveira Junior Actif 116 / 123 40% 1 08.05.2027 -
Oleksandr Saputin Poltava Actif 116 / 119 40% 2 03.05.2027 -
Alexandr Koryakin Krasnodar Actif 127 / 115 40% 2 30.04.2027 -
Filip Marschall Stevenage Actif 124 / 107 40% 2 27.04.2027 -
Patrik Gunnarsson KV Kortrijk Actif 122 / 125 40% 1 27.04.2027 -
Deniz Ertaş Konyaspor Actif 122 / 129 40% 3 26.04.2027 -
Leo Kokubo Sint-Truiden Actif 123 / 117 40% 1 26.04.2027 -
Bento Al-Nassr Actif 143 / 134 40% 1 24.04.2027 -
Bernardo Fontes Braga Actif 136 / 130 40% 2 23.04.2027 -
Antonio Gomis Vizela Actif 114 / 118 40% 1 22.04.2027 -
Mateusz Kochalski Dynamo Kyiv Actif 137 / 139 40% 1 17.04.2027 -
Nikos Christogeorgos OFI Actif 105 / 115 40% 1 14.04.2027 -
Cezary Miszta Rio Ave Actif 141 / 138 40% 2 05.04.2027 -
Guillaume Restes Toulouse FC Actif 130 / 134 40% 1 29.03.2027 -
Jonathan Fischer FC Metz Actif 131 / 129 40% 2 24.03.2027 -
Bradley Mabunda SuperSport United Actif 124 / 106 40% 1 24.03.2027 -
Bilal Bayazıt Kayserispor Actif 124 / 123 40% 1 24.03.2027 -
João Valido Chaves Actif 123 / 106 40% 2 21.03.2027 -
Maduka Okoye Udinese Actif 130 / 137 40% 1 21.03.2027 -
Christian Joel Sánchez Leiria Actif 119 / 116 40% 1 20.03.2027 -
Francisco Meixedo Feirense Actif 117 / 118 40% 1 17.03.2027 -
Jhonata Robert Criciuma Actif 119 / 111 69% 1 28.12.2026 Approuver
Negueba Mirassol Actif 116 / 119 69% 1 21.12.2026 Approuver
Alexandro Bernabei Internacional Actif 135 / 135 40% 1 30.11.2026 -
Emerson Royal Flamengo Actif 138 / 130 40% 1 20.11.2026 -
Renan Lodi Atlético Mineiro Actif 135 / 139 40% 1 20.11.2026 -
Zeno Debast Sporting CP Actif 132 / 149 40% 1 20.11.2026 -
Lucas Veríssimo Santos Actif 134 / 139 40% 1 16.11.2026 -
Jan Bednarek Porto Actif 157 / 150 40% 1 16.11.2026 -
Tariq Lamptey Queens Park Rangers Actif 128 / 133 40% 1 16.11.2026 -
Victor Froholdt Porto Actif 141 / 165 40% 2 12.11.2026 -
Guilherme Arana Fluminense Actif 141 / 136 40% 2 30.10.2026 -
Sikou Niakaté Braga Actif 141 / 129 40% 3 30.10.2026 -
Bright Arrey-Mbi Braga Actif 144 / 128 40% 1 26.10.2026 -
Luis Romo Guadalajara Actif 147 / 143 40% 1 26.10.2026 -
Stanislav Lobotka Galatasaray Actif 161 / 156 40% 1 26.10.2026 -
Wendel Zenit Actif 144 / 142 40% 1 23.10.2026 -
João Palhinha Benfica Actif 145 / 145 40% 1 23.10.2026 -
Tomás Araújo Benfica Actif 140 / 144 40% 1 14.10.2026 -
Caio Alexandre Bahia Actif 142 / 134 40% 1 14.10.2026 -
Tyrell Malacia Monaco Actif 123 / 135 40% 1 12.10.2026 -
William Cruzeiro Actif 145 / 133 40% 1 06.10.2026 -
Danilo Botafogo Actif 133 / 133 40% 1 27.09.2026 -
Alberto Costa Porto Actif 146 / 146 40% 1 27.09.2026 -
Calvin Bassey Fulham Actif 142 / 153 40% 1 27.09.2026 -
Vitinho Botafogo Actif 138 / 135 40% 1 18.09.2026 -
Léo Ortiz Flamengo Actif 139 / 145 40% 1 18.09.2026 -
Takehiro Tomiyasu Crystal Palace Actif 143 / 136 40% 1 12.09.2026 -
Alexander Bah Benfica Actif 135 / 142 40% 1 12.09.2026 -
Paulo Henrique Vasco da Gama Actif 140 / 128 40% 1 10.09.2026 -
Gustaf Lagerbielke Braga Actif 147 / 142 40% 1 10.09.2026 -
Natan Betis Actif 134 / 144 40% 1 01.08.2026 -
Leandro Barreiro Benfica Actif 153 / 144 40% 1 01.08.2026 -